Arctic Princess — LAGE6 — position and weather

sailwx.info

Track history (hours):
 
Tides and Currents Weather Stations Pressure Air Temp Water Temp Dewpoint Dewpoint Depression Visibility Wind Speed Wind Dir Waves Ship Positions

Arctic Princess

Last reported at 2018-Jan-22 04:34 UTC. Time now 2018-Jan-22 06:44 UTC.
Position N 36°31' E 013°36'.

Length 288 m; draft 9.7 m.

Type: Tanker. MMSI: 257739000.

Date/timePositionNaut miles runAvg speedWind from/ knotsBaromVisibWave heightAir tempDewpointWater temp
2018-Jan-22 04:34N 36°31' E 013°36'615.7
2018-Jan-22 04:13N 36°29' E 013°42'416.0
2018-Jan-22 03:58N 36°27' E 013°46'815.9
2018-Jan-22 03:28N 36°23' E 013°55'715.9
2018-Jan-22 03:00N 36°20' E 014°04'816.1
2018-Jan-22 02:29N 36°17' E 014°13'815.9
2018-Jan-22 02:00N 36°14' E 014°22'815.7
2018-Jan-22 01:30N 36°12' E 014°31'715.1
2018-Jan-22 01:00N 36°11' E 014°40'815.1
2018-Jan-22 00:30N 36°09' E 014°50'  
Track history (hours):
 
Tides and Currents Weather Stations Pressure Air Temp Water Temp Dewpoint Dewpoint Depression Visibility Wind Speed Wind Dir Waves Ship Positions

Arctic Princess

Last reported at 2018-Jan-22 04:34 UTC. Time now 2018-Jan-22 06:44 UTC.
Position N 36°31' E 013°36'.

Length 288 m; draft 9.7 m.

Type: Tanker. MMSI: 257739000.

Date/timePositionNaut miles runAvg speedWind from/ knotsBaromVisibWave heightAir tempDewpointWater temp
2018-Jan-22 04:34N 36°31' E 013°36'615.7
2018-Jan-22 04:13N 36°29' E 013°42'416.0
2018-Jan-22 03:58N 36°27' E 013°46'815.9
2018-Jan-22 03:28N 36°23' E 013°55'715.9
2018-Jan-22 03:00N 36°20' E 014°04'816.1
2018-Jan-22 02:29N 36°17' E 014°13'815.9
2018-Jan-22 02:00N 36°14' E 014°22'815.7
2018-Jan-22 01:30N 36°12' E 014°31'715.1
2018-Jan-22 01:00N 36°11' E 014°40'815.1
2018-Jan-22 00:30N 36°09' E 014°50'  

Dump ship's entire track history